createdAt,value
2022-10-22T00:01:46.384Z,3.42
2022-10-22T00:04:13.123Z,4.03
2022-10-22T00:06:39.919Z,5.32
2022-10-22T00:09:06.672Z,4.53
2022-10-22T00:11:33.487Z,3.97
2022-10-22T00:14:00.315Z,4.38
2022-10-22T00:16:27.020Z,4.63
2022-10-22T00:18:53.774Z,3.85
2022-10-22T00:21:20.597Z,3.92
2022-10-22T00:23:47.341Z,5.07
2022-10-22T00:26:14.193Z,4.60
2022-10-22T00:28:41.244Z,4.20
2022-10-22T00:31:08.276Z,4.80
2022-10-22T00:33:35.052Z,4.55
2022-10-22T00:36:01.989Z,4.07
2022-10-22T00:38:28.804Z,5.88
2022-10-22T00:40:56.214Z,3.43
2022-10-22T00:43:23.044Z,5.05
2022-10-22T00:45:49.763Z,3.25
2022-10-22T00:48:24.472Z,3.53
2022-10-22T00:50:55.736Z,3.40
2022-10-22T00:53:49.409Z,4.00
2022-10-22T00:56:16.684Z,6.15
2022-10-22T00:58:47.488Z,4.45
2022-10-22T01:01:18.829Z,5.18
2022-10-22T01:03:45.839Z,3.30
2022-10-22T01:06:19.136Z,4.00
2022-10-22T01:09:02.744Z,4.47
2022-10-22T01:11:51.213Z,6.20
2022-10-22T01:14:45.609Z,4.15
2022-10-22T01:17:32.158Z,3.42
2022-10-22T01:20:26.710Z,5.07
2022-10-22T01:23:13.278Z,3.90
2022-10-22T01:26:06.213Z,5.32
2022-10-22T01:28:59.831Z,6.57
2022-10-22T01:31:32.429Z,4.80
2022-10-22T01:34:00.561Z,4.33
2022-10-22T01:36:33.251Z,3.72
2022-10-22T01:39:01.905Z,4.93
2022-10-22T01:41:29.803Z,4.78
2022-10-22T01:43:56.743Z,3.65
2022-10-22T01:46:27.172Z,3.67
2022-10-22T01:49:11.804Z,4.78
2022-10-22T01:52:11.982Z,5.50
2022-10-22T01:55:19.725Z,4.63
2022-10-22T01:57:54.120Z,4.60
2022-10-22T02:00:21.572Z,4.33
2022-10-22T02:02:58.521Z,5.40
2022-10-22T02:05:32.450Z,4.55
2022-10-22T02:08:25.019Z,4.20
2022-10-22T02:10:53.745Z,4.60
2022-10-22T02:13:26.748Z,6.43
2022-10-22T02:15:56.190Z,3.67
2022-10-22T02:18:28.152Z,4.93
2022-10-22T02:20:55.183Z,4.10
2022-10-22T02:23:22.324Z,4.53
2022-10-22T02:25:56.047Z,4.40
2022-10-22T02:28:29.307Z,4.68
2022-10-22T02:31:06.741Z,5.15
2022-10-22T02:33:40.246Z,3.92
2022-10-22T02:36:08.383Z,3.72
2022-10-22T02:38:36.486Z,4.50
2022-10-22T02:41:04.246Z,4.18
2022-10-22T02:43:31.076Z,4.28
2022-10-22T02:45:58.008Z,4.47
2022-10-22T02:48:24.781Z,4.80
2022-10-22T02:50:51.571Z,4.10
2022-10-22T02:53:18.329Z,4.10
2022-10-22T02:55:45.042Z,4.20
2022-10-22T02:58:11.907Z,3.90
2022-10-22T03:00:38.671Z,4.13
2022-10-22T03:03:05.587Z,4.00
2022-10-22T03:05:32.644Z,4.20
2022-10-22T03:07:59.391Z,3.80
2022-10-22T03:10:27.257Z,4.10
2022-10-22T03:12:54.079Z,4.85
2022-10-22T03:15:20.885Z,5.03
2022-10-22T03:17:47.600Z,4.57
2022-10-22T03:20:14.591Z,6.47
2022-10-22T03:22:43.779Z,4.05
2022-10-22T03:25:20.961Z,4.18
2022-10-22T03:27:48.681Z,4.50
2022-10-22T03:30:15.437Z,5.93
2022-10-22T03:32:42.171Z,3.70
2022-10-22T03:35:09.164Z,3.60
2022-10-22T03:37:37.072Z,4.75
2022-10-22T03:40:06.562Z,4.23
2022-10-22T03:42:33.527Z,3.72
2022-10-22T03:45:00.232Z,4.28
2022-10-22T03:47:27.025Z,4.35
2022-10-22T03:49:53.853Z,3.70
2022-10-22T03:52:20.618Z,3.60
2022-10-22T03:54:47.440Z,4.47
2022-10-22T03:57:14.655Z,4.45
2022-10-22T03:59:44.754Z,3.78
2022-10-22T04:02:14.776Z,4.53
2022-10-22T04:04:41.689Z,4.83
2022-10-22T04:07:09.103Z,3.30
2022-10-22T04:09:39.647Z,3.90
2022-10-22T04:12:06.663Z,5.57
2022-10-22T04:14:33.502Z,4.15
2022-10-22T04:17:00.223Z,4.43
2022-10-22T04:19:27.052Z,4.32
2022-10-22T04:22:00.851Z,6.07
2022-10-22T04:24:32.016Z,4.03
2022-10-22T04:26:59.188Z,3.63
2022-10-22T04:29:26.170Z,4.13
2022-10-22T04:31:53.455Z,5.43
2022-10-22T04:34:20.345Z,5.40
2022-10-22T04:36:49.852Z,4.43
2022-10-22T04:39:16.660Z,4.32
2022-10-22T04:41:43.353Z,5.30
2022-10-22T04:44:12.474Z,4.35
2022-10-22T04:46:43.951Z,5.80
2022-10-22T04:49:10.802Z,5.13
2022-10-22T04:51:40.081Z,8.77
2022-10-22T04:54:06.912Z,4.17
2022-10-22T04:56:33.707Z,4.15
2022-10-22T04:59:03.187Z,4.45
2022-10-22T05:01:33.864Z,4.60
2022-10-22T05:04:03.064Z,4.82
2022-10-22T05:06:31.253Z,4.70
2022-10-22T05:09:03.797Z,3.55
2022-10-22T05:11:35.699Z,4.75
2022-10-22T05:14:04.825Z,3.85
2022-10-22T05:16:33.290Z,4.43
2022-10-22T05:19:01.902Z,4.57
2022-10-22T05:21:29.128Z,3.33
2022-10-22T05:23:57.324Z,4.10
2022-10-22T05:26:24.158Z,3.90
2022-10-22T05:28:51.851Z,3.85
2022-10-22T05:31:19.052Z,4.23
2022-10-22T05:33:48.365Z,4.35
2022-10-22T05:36:24.711Z,3.92
2022-10-22T05:38:51.402Z,5.95
2022-10-22T05:41:21.635Z,7.93
2022-10-22T05:43:48.724Z,5.10
2022-10-22T05:46:22.244Z,3.55
2022-10-22T05:48:51.859Z,3.92
2022-10-22T05:51:19.060Z,4.45
2022-10-22T05:53:46.538Z,4.80
2022-10-22T05:56:15.746Z,3.57
2022-10-22T05:58:44.511Z,3.38
2022-10-22T06:01:26.585Z,4.72
2022-10-22T06:03:58.518Z,4.70
2022-10-22T06:06:38.422Z,4.85
2022-10-22T06:12:07.767Z,11.05
2022-10-22T06:14:34.538Z,5.03
2022-10-22T06:17:01.274Z,5.90
2022-10-22T06:19:28.373Z,10.55
2022-10-22T06:21:55.141Z,4.43
2022-10-22T06:24:21.894Z,25.77
2022-10-22T06:26:52.091Z,7.68
2022-10-22T06:29:18.970Z,6.80
2022-10-22T06:31:45.868Z,8.23
2022-10-22T06:34:14.160Z,5.50
2022-10-22T06:39:12.672Z,7.78
2022-10-22T06:41:39.669Z,5.43
2022-10-22T06:44:06.454Z,5.72
2022-10-22T06:46:33.240Z,5.50
2022-10-22T06:49:01.911Z,6.03
2022-10-22T06:51:30.045Z,7.05
2022-10-22T06:53:58.158Z,6.13
2022-10-22T06:56:27.260Z,6.43
2022-10-22T06:58:55.887Z,6.03
2022-10-22T07:01:25.855Z,6.38
2022-10-22T07:03:53.396Z,5.20
2022-10-22T07:06:21.510Z,9.70
2022-10-22T07:08:48.912Z,6.53
2022-10-22T07:11:24.618Z,5.70
2022-10-22T07:13:53.676Z,6.20
2022-10-22T07:16:20.493Z,5.30
2022-10-22T07:18:48.264Z,6.72
2022-10-22T07:21:17.699Z,6.90
2022-10-22T07:23:45.116Z,5.00
2022-10-22T07:26:14.016Z,5.13
2022-10-22T07:28:41.219Z,5.90
2022-10-22T07:31:10.083Z,8.25
2022-10-22T07:33:37.995Z,7.75
2022-10-22T07:36:08.319Z,5.00
2022-10-22T07:38:36.188Z,5.05
2022-10-22T07:41:03.972Z,6.22
2022-10-22T07:43:30.765Z,5.22
2022-10-22T07:45:57.528Z,6.25
2022-10-22T07:48:24.783Z,6.70
2022-10-22T07:50:52.433Z,7.80
2022-10-22T07:53:19.220Z,6.00
2022-10-22T07:55:51.619Z,3.70
2022-10-22T07:58:19.586Z,4.43
2022-10-22T08:00:46.912Z,4.77
2022-10-22T08:03:18.345Z,4.47
2022-10-22T08:05:48.413Z,3.75
2022-10-22T08:08:16.818Z,6.03
2022-10-22T08:10:44.490Z,6.60
2022-10-22T08:13:11.773Z,4.77
2022-10-22T08:15:39.107Z,5.53
2022-10-22T08:18:06.456Z,5.20
2022-10-22T08:20:33.305Z,8.38
2022-10-22T08:23:02.890Z,9.77
2022-10-22T08:25:30.163Z,5.87
2022-10-22T08:27:56.946Z,7.68
2022-10-22T08:30:23.801Z,6.78
2022-10-22T08:32:54.133Z,5.15
2022-10-22T08:35:21.543Z,6.47
2022-10-22T08:37:48.377Z,5.77
2022-10-22T08:40:37.893Z,8.23
2022-10-22T08:43:42.171Z,6.90
2022-10-22T08:46:30.082Z,6.05
2022-10-22T08:49:00.907Z,7.47
2022-10-22T08:51:33.035Z,6.67
2022-10-22T08:54:02.571Z,7.40
2022-10-22T08:56:31.439Z,6.18
2022-10-22T08:59:23.173Z,4.45
2022-10-22T09:01:54.355Z,5.68
2022-10-22T09:04:38.815Z,7.37
2022-10-22T09:07:05.583Z,5.00
2022-10-22T09:09:39.804Z,5.53
2022-10-22T09:12:20.106Z,5.60
2022-10-22T09:14:47.530Z,5.35
2022-10-22T09:17:21.200Z,5.03
2022-10-22T09:20:20.027Z,5.32
2022-10-22T09:22:58.646Z,6.32
2022-10-22T09:25:31.552Z,5.55
2022-10-22T09:27:58.328Z,5.35
2022-10-22T09:30:28.696Z,6.63
2022-10-22T09:33:20.165Z,6.22
2022-10-22T09:36:02.782Z,5.20
2022-10-22T09:38:33.116Z,5.15
2022-10-22T09:41:02.109Z,6.13
2022-10-22T09:43:29.141Z,5.87
2022-10-22T09:46:04.928Z,7.18
2022-10-22T09:48:37.276Z,7.57
2022-10-22T09:51:12.426Z,6.65
2022-10-22T09:53:44.079Z,5.15
2022-10-22T09:56:24.142Z,6.13
2022-10-22T09:58:51.297Z,4.95
2022-10-22T10:01:23.000Z,6.15
2022-10-22T10:03:50.593Z,4.80
2022-10-22T10:06:22.241Z,6.28
2022-10-22T10:08:49.802Z,6.10
2022-10-22T10:11:46.027Z,4.25
2022-10-22T10:14:12.837Z,5.00
2022-10-22T10:17:04.826Z,5.60
2022-10-22T10:20:00.033Z,4.18
2022-10-22T10:22:50.834Z,6.03
2022-10-22T10:25:27.020Z,4.45
2022-10-22T10:28:00.158Z,5.80
2022-10-22T10:30:27.533Z,5.53
2022-10-22T10:33:00.276Z,5.82
2022-10-22T10:35:51.947Z,6.27
2022-10-22T10:38:26.050Z,5.65
2022-10-22T10:41:04.032Z,6.97
2022-10-22T10:43:45.595Z,4.57
2022-10-22T10:46:21.532Z,5.25
2022-10-22T10:49:09.631Z,6.10
2022-10-22T10:52:19.023Z,5.53
2022-10-22T10:55:00.349Z,5.25
2022-10-22T10:57:42.693Z,5.97
2022-10-22T11:00:17.371Z,6.25
2022-10-22T11:03:21.195Z,4.97
2022-10-22T11:06:06.571Z,6.18
2022-10-22T11:08:42.995Z,4.30
2022-10-22T11:11:19.925Z,4.60
2022-10-22T11:14:11.377Z,4.95
2022-10-22T11:16:53.755Z,7.20
2022-10-22T11:20:05.144Z,5.82
2022-10-22T11:22:42.090Z,5.30
2022-10-22T11:25:16.717Z,6.63
2022-10-22T11:28:05.467Z,8.95
2022-10-22T11:30:37.210Z,6.07
2022-10-22T11:33:22.167Z,5.85
2022-10-22T11:35:50.505Z,7.05
2022-10-22T11:38:26.082Z,5.20
2022-10-22T11:40:57.335Z,5.20
2022-10-22T11:43:27.095Z,8.27
2022-10-22T11:46:09.380Z,6.55
2022-10-22T11:48:39.938Z,6.00
2022-10-22T11:51:34.557Z,10.27
2022-10-22T11:54:37.884Z,9.50
2022-10-22T11:57:21.488Z,6.80
2022-10-22T11:59:48.180Z,8.40
2022-10-22T12:02:44.328Z,6.78
2022-10-22T12:05:41.412Z,6.47
2022-10-22T12:08:15.697Z,7.90
2022-10-22T12:10:57.382Z,8.13
2022-10-22T12:13:32.012Z,6.95
2022-10-22T12:16:03.911Z,6.70
2022-10-22T12:18:45.930Z,5.88
2022-10-22T12:21:14.613Z,7.20
2022-10-22T12:23:42.363Z,5.97
2022-10-22T12:26:27.431Z,5.18
2022-10-22T12:29:01.397Z,6.57
2022-10-22T12:31:36.379Z,5.65
2022-10-22T12:34:03.505Z,4.75
2022-10-22T12:36:33.122Z,5.77
2022-10-22T12:39:01.561Z,6.35
2022-10-22T12:41:37.123Z,4.63
2022-10-22T12:44:05.352Z,4.90
2022-10-22T12:46:34.605Z,7.50
2022-10-22T12:49:04.733Z,6.73
2022-10-22T12:54:12.227Z,6.22
2022-10-22T12:56:41.959Z,8.70
2022-10-22T12:59:28.222Z,5.53
2022-10-22T13:01:55.624Z,5.60
2022-10-22T13:04:33.753Z,5.80
2022-10-22T13:07:03.650Z,6.65
2022-10-22T13:09:39.802Z,6.47
2022-10-22T13:12:08.627Z,6.78
2022-10-22T13:14:39.323Z,5.60
2022-10-22T13:17:17.025Z,6.10
2022-10-22T13:20:01.810Z,5.75
2022-10-22T13:22:33.530Z,13.35
2022-10-22T13:25:15.522Z,11.68
2022-10-22T13:27:55.063Z,7.37
2022-10-22T13:30:36.257Z,5.22
2022-10-22T13:33:22.184Z,6.43
2022-10-22T13:35:49.684Z,6.57
2022-10-22T13:38:26.284Z,5.75
2022-10-22T13:40:53.094Z,6.07
2022-10-22T13:43:20.069Z,7.05
2022-10-22T13:45:54.692Z,5.88
2022-10-22T13:48:24.098Z,6.95
2022-10-22T13:50:51.755Z,7.95
2022-10-22T13:53:22.097Z,7.30
2022-10-22T13:55:48.934Z,7.55
2022-10-22T14:00:52.907Z,6.35
2022-10-22T14:03:22.771Z,5.65
2022-10-22T14:05:50.226Z,5.87
2022-10-22T14:08:20.512Z,6.03
2022-10-22T14:10:47.926Z,5.53
2022-10-22T14:13:16.392Z,4.32
2022-10-22T14:15:45.452Z,4.82
2022-10-22T14:18:21.867Z,4.40
2022-10-22T14:20:48.672Z,6.70
2022-10-22T14:23:19.790Z,5.47
2022-10-22T14:25:47.627Z,5.18
2022-10-22T14:28:14.718Z,6.65
2022-10-22T14:30:42.329Z,5.23
2022-10-22T14:33:31.497Z,5.38
2022-10-22T14:36:02.621Z,5.13
2022-10-22T14:38:29.804Z,5.45
2022-10-22T14:40:57.942Z,5.50
2022-10-22T14:43:30.314Z,4.97
2022-10-22T14:45:57.756Z,3.95
2022-10-22T14:48:25.152Z,4.60
2022-10-22T14:50:52.447Z,6.05
2022-10-22T14:53:19.539Z,4.25
2022-10-22T14:55:47.612Z,5.00
2022-10-22T14:58:15.261Z,5.22
2022-10-22T15:00:43.030Z,4.22
2022-10-22T15:03:10.602Z,3.78
2022-10-22T15:18:15.130Z,5.85
2022-10-22T15:20:42.250Z,5.07
2022-10-22T15:23:09.224Z,5.25
2022-10-22T15:25:36.301Z,6.07
2022-10-22T15:28:09.595Z,9.25
2022-10-22T15:30:37.020Z,7.63
2022-10-22T15:33:04.051Z,6.77
2022-10-22T15:35:31.013Z,6.00
2022-10-22T15:37:58.081Z,5.38
2022-10-22T15:40:25.088Z,5.47
2022-10-22T15:42:52.085Z,6.47
2022-10-22T15:45:19.339Z,5.47
2022-10-22T15:47:48.360Z,3.70
2022-10-22T15:50:15.643Z,5.57
2022-10-22T15:52:42.820Z,4.95
2022-10-22T15:55:09.925Z,3.92
2022-10-22T15:57:38.030Z,4.10
2022-10-22T16:02:57.207Z,6.22
2022-10-22T16:05:24.226Z,5.15
2022-10-22T16:07:51.192Z,5.68
2022-10-22T16:10:18.316Z,4.67
2022-10-22T16:12:45.310Z,8.80
2022-10-22T16:15:13.127Z,7.35
2022-10-22T16:17:40.213Z,6.78
2022-10-22T16:20:07.690Z,6.32
2022-10-22T16:22:35.057Z,6.33
2022-10-22T16:25:02.289Z,6.50
2022-10-22T16:27:29.322Z,9.73
2022-10-22T16:29:56.296Z,9.48
2022-10-22T16:32:23.288Z,15.23
2022-10-22T16:34:50.581Z,10.20
2022-10-22T16:37:19.978Z,7.38
2022-10-22T16:39:48.210Z,7.57
2022-10-22T16:42:15.273Z,5.65
2022-10-22T16:44:51.461Z,6.63
2022-10-22T16:47:22.063Z,7.77
2022-10-22T16:49:52.178Z,7.88
2022-10-22T16:52:30.435Z,15.38
2022-10-22T16:54:57.481Z,16.42
2022-10-22T16:57:28.013Z,17.17
2022-10-22T16:59:55.157Z,19.70
2022-10-22T17:02:22.306Z,21.67
2022-10-22T17:04:49.220Z,21.25
2022-10-22T17:07:16.376Z,24.95
2022-10-22T17:09:43.347Z,21.27
2022-10-22T17:12:10.412Z,21.40
2022-10-22T17:14:40.377Z,15.60
2022-10-22T17:17:07.396Z,15.93
2022-10-22T17:19:34.337Z,14.93
2022-10-22T17:22:01.536Z,16.70
2022-10-22T17:24:28.497Z,14.43
2022-10-22T17:26:55.568Z,13.40
2022-10-22T17:29:22.638Z,16.00
2022-10-22T17:31:49.652Z,14.20
2022-10-22T17:34:17.716Z,14.25
2022-10-22T17:36:45.364Z,11.47
2022-10-22T17:39:16.996Z,12.18
2022-10-22T17:41:44.076Z,10.93
2022-10-22T17:44:12.566Z,8.48
2022-10-22T17:46:39.705Z,11.43
2022-10-22T17:49:12.679Z,10.23
2022-10-22T17:51:39.522Z,6.15
2022-10-22T17:54:09.015Z,7.30
2022-10-22T17:56:37.188Z,8.02
2022-10-22T17:59:04.254Z,8.88
2022-10-22T18:01:33.988Z,10.87
2022-10-22T18:04:14.048Z,8.20
2022-10-22T18:06:41.200Z,8.40
2022-10-22T18:09:12.348Z,15.65
2022-10-22T18:11:44.374Z,11.77
2022-10-22T18:14:14.085Z,12.33
2022-10-22T18:16:41.020Z,10.57
2022-10-22T18:19:08.096Z,10.25
2022-10-22T18:21:35.226Z,10.20
2022-10-22T18:24:02.236Z,11.88
2022-10-22T18:26:29.318Z,12.37
2022-10-22T18:28:58.176Z,8.95
2022-10-22T18:31:27.500Z,14.77
2022-10-22T18:33:55.825Z,12.82
2022-10-22T18:36:25.874Z,10.75
2022-10-22T18:38:57.877Z,10.87
2022-10-22T18:41:25.527Z,9.88
2022-10-22T18:44:03.543Z,9.77
2022-10-22T18:46:32.217Z,10.43
2022-10-22T18:48:59.359Z,8.20
2022-10-22T18:51:29.676Z,9.63
2022-10-22T18:54:05.054Z,10.98
2022-10-22T18:56:44.814Z,9.13
2022-10-22T18:59:21.767Z,10.45
2022-10-22T19:01:49.236Z,13.00
2022-10-22T19:04:16.684Z,10.60
2022-10-22T19:06:47.206Z,10.70
2022-10-22T19:09:15.940Z,11.32
2022-10-22T19:11:44.905Z,15.70
2022-10-22T19:14:14.574Z,14.43
2022-10-22T19:16:41.666Z,11.83
2022-10-22T19:19:11.898Z,11.60
2022-10-22T19:21:38.902Z,17.67
2022-10-22T19:24:11.095Z,9.38
2022-10-22T19:26:43.247Z,11.77
2022-10-22T19:29:12.531Z,12.27
2022-10-22T19:31:39.838Z,11.85
2022-10-22T19:34:06.954Z,15.50
2022-10-22T19:36:34.221Z,14.05
2022-10-22T19:39:02.387Z,15.27
2022-10-22T19:41:32.618Z,14.70
2022-10-22T19:44:01.115Z,12.70
2022-10-22T19:46:30.427Z,13.85
2022-10-22T19:48:57.451Z,14.88
2022-10-22T19:51:27.979Z,20.17
2022-10-22T19:54:00.465Z,17.97
2022-10-22T19:56:27.643Z,13.35
2022-10-22T19:58:55.267Z,17.48
2022-10-22T20:01:22.373Z,15.57
2022-10-22T20:03:49.765Z,15.98
2022-10-22T20:06:18.508Z,18.70
2022-10-22T20:08:46.529Z,14.23
2022-10-22T20:11:31.900Z,13.98
2022-10-22T20:13:59.142Z,13.38
2022-10-22T20:16:28.156Z,13.93
2022-10-22T20:18:55.193Z,11.53
2022-10-22T20:21:22.274Z,16.40
2022-10-22T20:23:53.274Z,17.45
2022-10-22T20:26:21.530Z,14.07
2022-10-22T20:28:48.418Z,14.30
2022-10-22T20:31:17.789Z,18.33
2022-10-22T20:33:44.825Z,15.30
2022-10-22T20:36:18.338Z,13.32
2022-10-22T20:38:46.214Z,17.17
2022-10-22T20:41:16.325Z,17.90
2022-10-22T20:43:48.222Z,11.53
2022-10-22T20:46:18.937Z,12.30
2022-10-22T20:48:46.702Z,12.82
2022-10-22T20:51:13.986Z,11.38
2022-10-22T20:53:41.032Z,13.57
2022-10-22T20:56:08.456Z,11.73
2022-10-22T20:58:36.360Z,11.90
2022-10-22T21:01:03.923Z,11.18
2022-10-22T21:03:31.356Z,11.63
2022-10-22T21:05:58.369Z,11.23
2022-10-22T21:08:25.313Z,11.50
2022-10-22T21:10:52.360Z,12.35
2022-10-22T21:13:19.450Z,10.38
2022-10-22T21:15:46.302Z,13.52
2022-10-22T21:18:13.655Z,16.83
2022-10-22T21:20:42.518Z,15.63
2022-10-22T21:23:09.492Z,13.85
2022-10-22T21:25:40.657Z,15.70
2022-10-22T21:28:10.305Z,17.90
2022-10-22T21:30:37.454Z,16.42
2022-10-22T21:33:04.340Z,17.50
2022-10-22T21:35:31.557Z,19.30
2022-10-22T21:37:58.537Z,21.48
2022-10-22T21:40:25.467Z,17.38
2022-10-22T21:42:52.949Z,20.23
2022-10-22T21:45:22.320Z,20.57
2022-10-22T21:47:49.582Z,16.10
2022-10-22T21:50:16.698Z,24.23
2022-10-22T21:52:43.580Z,22.25
2022-10-22T21:55:10.858Z,15.90
2022-10-22T21:57:38.096Z,11.33
2022-10-22T22:00:09.234Z,11.75
2022-10-22T22:02:36.151Z,11.05
2022-10-22T22:05:03.528Z,10.40
2022-10-22T22:07:30.569Z,10.38
2022-10-22T22:09:57.502Z,12.83
2022-10-22T22:12:24.699Z,12.90
2022-10-22T22:14:51.513Z,12.40
2022-10-22T22:17:18.454Z,17.30
2022-10-22T22:19:45.490Z,17.02
2022-10-22T22:22:12.450Z,15.73
2022-10-22T22:24:39.516Z,13.60
2022-10-22T22:27:06.891Z,16.05
2022-10-22T22:29:34.512Z,13.80
2022-10-22T22:32:01.466Z,23.20
2022-10-22T22:34:28.492Z,19.17
2022-10-22T22:36:55.455Z,14.43
2022-10-22T22:39:24.231Z,13.32
2022-10-22T22:41:51.393Z,10.43
2022-10-22T22:44:18.429Z,9.98
2022-10-22T22:46:45.277Z,18.57
2022-10-22T22:49:13.146Z,17.83
2022-10-22T22:51:40.089Z,18.70
2022-10-22T22:54:07.073Z,19.85
2022-10-22T22:56:34.292Z,15.55
2022-10-22T22:59:01.582Z,14.37
2022-10-22T23:01:33.565Z,16.63
2022-10-22T23:04:04.839Z,12.90
2022-10-22T23:06:35.096Z,16.17
2022-10-22T23:09:02.916Z,20.73
2022-10-22T23:11:29.818Z,18.37
2022-10-22T23:13:59.696Z,16.55
2022-10-22T23:16:29.610Z,12.57
2022-10-22T23:18:57.198Z,14.30
2022-10-22T23:21:31.424Z,15.90
2022-10-22T23:24:01.845Z,10.77
2022-10-22T23:26:35.058Z,14.93
2022-10-22T23:29:04.859Z,18.67
2022-10-22T23:31:31.837Z,17.10
2022-10-22T23:33:59.422Z,16.80
2022-10-22T23:36:27.297Z,14.23
2022-10-22T23:38:55.016Z,18.52
2022-10-22T23:41:22.331Z,13.57
2022-10-22T23:43:50.406Z,14.48
2022-10-22T23:46:17.665Z,17.95
2022-10-22T23:48:44.806Z,18.90
2022-10-22T23:51:14.120Z,17.83
2022-10-22T23:53:42.256Z,16.40
2022-10-22T23:56:13.711Z,21.20
2022-10-22T23:58:40.668Z,17.75
